Campanya meteocatpedra

Dades de l'estació automàtica l'Espluga de Francolí

?
?
Resum diari 22:30 TU
Dades diàries de l'estació meteorològica
Temperatura mitjana 12.7 °C
Temperatura màxima 18.6 °C 14:09 TU
Temperatura mínima 7.6 °C 5:54 TU
Humitat relativa mitjana 76%
Precipitació acumulada 0.0 mm
Ratxa màxima del vent (10 m) 24.1 km/h - 322º 8:36 TU
Pressió atmosfèrica mitjana 1026.3 hPa
Irradiació solar global 14.5 MJ/m2

El tram horari està expressat en Temps Universal (TU). Cal sumar una hora en horari d'hivern i dues en horari d'estiu per passar a l'hora oficial.

l'Espluga de Francolí

Metadades estació meteorol´gica
Municipi L'Espluga de Francolí
Comarca Conca de Barberà
Altitud 446 m
Data alta 23.02.1996
Estat actual Operativa
Dades de període
Període
TU
TM
°C
TX
°C
TN
°C
HRM
%
PPT
mm
VVM (10 m)
km/h
DVM (10 m)
graus
VVX (10 m)
km/h
PM
hPa
RS
W/m2
00:00 - 00:30 10.9 11.4 10.2 96 0.0 6.5 227 10.8 1026.0 0
00:30 - 01:00 11.3 11.5 11.2 98 0.0 6.5 234 12.6 1025.6 0
01:00 - 01:30 11.4 11.5 11.1 98 0.0 5.8 227 11.2 1025.5 0
01:30 - 02:00 11.2 11.3 11.0 98 0.0 7.9 242 13.7 1025.8 0
02:00 - 02:30 10.4 10.9 9.8 96 0.0 6.1 266 11.2 1025.9 0
02:30 - 03:00 9.4 9.8 9.1 94 0.0 6.5 274 11.5 1026.0 0
03:00 - 03:30 9.0 9.1 8.7 89 0.0 7.2 265 13.0 1026.0 0
03:30 - 04:00 8.3 8.6 8.2 90 0.0 4.3 257 10.8 1026.2 0
04:00 - 04:30 8.2 8.5 7.9 89 0.0 5.4 268 12.2 1026.4 0
04:30 - 05:00 8.5 8.8 8.1 88 0.0 7.2 258 14.4 1026.7 0
05:00 - 05:30 8.1 8.3 7.9 89 0.0 5.0 249 14.0 1026.7 0
05:30 - 06:00 7.7 7.9 7.6 90 0.0 3.6 254 7.2 1027.0 0
06:00 - 06:30 7.9 8.0 7.8 88 0.0 5.4 237 11.2 1027.5 2
06:30 - 07:00 8.2 9.0 8.0 87 0.0 5.0 272 11.9 1027.5 48
07:00 - 07:30 9.7 10.4 9.1 83 0.0 6.1 236 13.3 1027.7 125
07:30 - 08:00 11.0 11.8 10.4 77 0.0 5.8 272 11.5 1027.9 202
08:00 - 08:30 12.8 13.6 12.0 70 0.0 6.5 285 16.6 1027.6 301
08:30 - 09:00 13.5 13.8 13.4 64 0.0 11.2 290 24.1 1027.6 387
09:00 - 09:30 14.1 14.4 13.9 63 0.0 11.2 294 20.2 1027.5 461
09:30 - 10:00 14.7 15.1 14.4 60 0.0 12.2 300 23.4 1027.5 527
10:00 - 10:30 15.3 15.5 15.0 60 0.0 13.0 299 22.0 1027.2 576
10:30 - 11:00 15.9 16.3 15.6 58 0.0 13.7 305 24.1 1026.8 612
11:00 - 11:30 16.6 17.0 16.2 55 0.0 11.9 306 23.8 1026.2 631
11:30 - 12:00 17.1 17.8 16.7 54 0.0 11.5 302 23.0 1025.9 636
12:00 - 12:30 17.7 17.9 17.5 53 0.0 11.9 294 22.0 1025.7 625
12:30 - 13:00 17.6 17.9 17.4 54 0.0 12.2 299 22.3 1025.5 601
13:00 - 13:30 17.9 18.1 17.7 55 0.0 11.5 307 21.2 1025.1 562
13:30 - 14:00 18.2 18.5 17.8 54 0.0 10.8 306 22.0 1024.7 509
14:00 - 14:30 18.3 18.6 18.0 55 0.0 10.4 311 20.9 1024.6 442
14:30 - 15:00 17.8 18.2 17.5 57 0.0 11.2 309 20.2 1024.8 364
15:00 - 15:30 17.4 17.7 17.1 60 0.0 9.4 304 18.7 1025.0 278
15:30 - 16:00 16.8 17.1 16.4 62 0.0 10.8 310 20.5 1025.1 160
16:00 - 16:30 16.0 16.4 15.6 64 0.0 9.7 299 19.1 1025.3 59
16:30 - 17:00 15.2 15.6 14.8 68 0.0 8.3 284 14.4 1025.7 15
17:00 - 17:30 14.1 14.8 13.3 74 0.0 6.1 260 13.7 1026.0 0
17:30 - 18:00 12.7 13.2 12.1 81 0.0 5.0 256 10.8 1026.4 0
18:00 - 18:30 12.0 12.1 12.0 83 0.0 6.5 277 10.4 1026.6 0
18:30 - 19:00 11.8 12.0 11.7 82 0.0 5.8 287 9.7 1026.8 0
19:00 - 19:30 11.5 11.7 11.1 81 0.0 7.6 279 11.5 1026.8 0
19:30 - 20:00 11.4 11.6 11.1 81 0.0 7.2 269 13.3 1026.6 0
20:00 - 20:30 11.3 11.6 11.1 80 0.0 6.1 287 9.7 1026.7 0
20:30 - 21:00 11.3 11.4 11.1 80 0.0 7.6 283 11.9 1026.8 0
21:00 - 21:30 11.5 11.7 11.3 79 0.0 8.6 284 12.6 1026.8 0
21:30 - 22:00 11.6 11.8 11.3 79 0.0 9.0 281 14.4 1026.7 0
22:00 - 22:30 11.0 11.2 10.9 82 0.0 8.3 281 13.0 1026.7 0
22:30 - 23:00 11.1 11.3 11.1 82 0.0 10.1 277 15.1 1026.4 0

Les dades en taronja només han passat un control de qualitat automàtic. Resta pendent la seva validació definitiva.